NEW EXCHEQUER-LK MCCLURE (EXC)

Elevation: 879' · MERCED R basin · Operator: Merced Irrigation District

Provisional data, subject to change.
Query executed Sunday at 15:53:07   clock

Select a sensor type for a plot of data.
Note: Reservoir Flows are daily averages.

Earlier

Date RES ELE    STORAGE    RES CHG    TOC STO    ABV TOC    OUTFLOW    INFLOW    PPT INC    TEMP MN    TEMP MX    TEMP AV   
 FEET   AF   AF   AF   AF   CFS   CFS   INCHES   DEG F   DEG F   DEG F  
01/02/2015 593.84 72508 -- 674600 -602092 265 83 0.00 -- -- --
01/03/2015 593.53 72136 -- 674600 -602464 265 77 0.00 -- -- --
01/04/2015 593.23 71776 -252 674600 -602824 265 83 0.00 -- -- --
01/05/2015 592.92 71404 -- 674600 -603196 r 265 77 0.00 -- -- --
01/06/2015 592.62 71044 -- 674600 -603556 265 83 0.00 -- -- --
01/07/2015 592.32 70684 -- 674600 -- 265 83 0.00 42 67 50
01/08/2015 592.06 70372 -- 674600 -604228 265 107 0.00 -- -- --
01/09/2015 591.78 70036 -- 674600 -604564 265 95 0.00 -- -- --
01/10/2015 591.53 69736 -- 674600 -604864 265 113 0.00 -- -- --
01/11/2015 591.32 69484 -- 674600 -605116 261 134 0.00 -- -- --
01/12/2015 591.10 69220 -- -- -- 268 135 0.00 -- -- --
01/13/2015 590.87 68944 -- -- -- 265 126 0.00 -- -- --
01/14/2015 590.62 68644 -- -- -- 265 113 0.00 -- -- --
01/15/2015 590.38 68356 -- -- -- 265 120 0.00 -- -- --
01/16/2015 590.16 68092 -- 674600 -- 261 128 0.00 -- -- --
01/17/2015 589.94 67834 -- 674600 -- 241 111 0.00 -- -- --
01/18/2015 589.69 67559 -- 674600 -- 240 101 0.00 -- -- --
01/19/2015 589.47 67317 -- 674600 -- 240 118 0.00 -- -- --
01/20/2015 589.23 67053 -- 674600 -607547 240 107 0.00 -- -- --
01/21/2015 589.01 66811 -- 674600 -607789 240 118 0.00 -- -- --
01/22/2015 588.77 66547 -- 674600 -608053 240 107 0.00 -- -- --
01/23/2015 588.54 66294 -- 674600 -608306 240 112 0.00 -- -- --
01/24/2015 588.29 66019 -- 674600 -608581 240 101 0.00 -- -- --
01/25/2015 588.04 65744 -- 674600 -- 240 101 0.00 -- -- --
01/26/2015 587.79 65469 -- 674600 -609131 240 101 0.03 -- -- --
01/27/2015 587.53 65183 -- 674600 -609417 240 96 0.00 -- -- --
01/28/2015 587.32 64952 -- 674600 -609648 240 124 0.00 -- -- --
01/29/2015 587.11 64721 -- 674600 -609879 240 124 0.00 -- -- --
01/30/2015 586.90 64490 -- 674600 -- 240 124 0.00 -- -- --
01/31/2015 586.70 64270 -- 674600 -610330 240 129 0.00 -- -- --
02/01/2015 -- -- -- -- -- -- -- -- -- -- --

Later | Latest

Warning! This data is preliminary and subject to revision.

Show EXC Map | Plot EXC Data | 1 Month EXC Data | Real-Time EXC Data | EXC Info